sensor_id;sensor_type;location;lat;lon;timestamp;pressure;altitude;pressure_sealevel;temperature;humidity
40692;BME280;26377;53.344;14.886;2022-08-19T00:00:10;100778.84;;;21.34;70.47
40692;BME280;26377;53.344;14.886;2022-08-19T00:02:42;100777.98;;;21.33;70.49
40692;BME280;26377;53.344;14.886;2022-08-19T00:05:13;100783.24;;;21.35;70.53
40692;BME280;26377;53.344;14.886;2022-08-19T00:07:43;100787.81;;;21.34;70.48
40692;BME280;26377;53.344;14.886;2022-08-19T00:10:15;100780.34;;;21.32;70.53
40692;BME280;26377;53.344;14.886;2022-08-19T00:12:44;100783.38;;;21.33;70.63
40692;BME280;26377;53.344;14.886;2022-08-19T00:15:14;100790.34;;;21.36;70.61
40692;BME280;26377;53.344;14.886;2022-08-19T00:17:45;100794.10;;;21.39;70.70
40692;BME280;26377;53.344;14.886;2022-08-19T00:20:17;100791.95;;;21.42;70.70
40692;BME280;26377;53.344;14.886;2022-08-19T00:22:45;100794.02;;;21.44;70.70
40692;BME280;26377;53.344;14.886;2022-08-19T00:25:16;100794.16;;;21.43;70.65
40692;BME280;26377;53.344;14.886;2022-08-19T00:27:44;100797.86;;;21.42;70.63
40692;BME280;26377;53.344;14.886;2022-08-19T00:30:14;100796.66;;;21.40;70.61
40692;BME280;26377;53.344;14.886;2022-08-19T00:32:42;100799.36;;;21.40;70.65
40692;BME280;26377;53.344;14.886;2022-08-19T00:35:13;100799.84;;;21.40;70.66
40692;BME280;26377;53.344;14.886;2022-08-19T00:37:41;100792.41;;;21.38;70.63
40692;BME280;26377;53.344;14.886;2022-08-19T00:40:11;100790.19;;;21.37;70.68
40692;BME280;26377;53.344;14.886;2022-08-19T00:42:39;100789.98;;;21.35;70.69
40692;BME280;26377;53.344;14.886;2022-08-19T00:45:18;100790.13;;;21.33;70.80
40692;BME280;26377;53.344;14.886;2022-08-19T00:47:51;100780.48;;;21.31;70.80
40692;BME280;26377;53.344;14.886;2022-08-19T00:50:24;100775.22;;;21.29;70.82
40692;BME280;26377;53.344;14.886;2022-08-19T00:52:52;100773.78;;;21.21;70.68
40692;BME280;26377;53.344;14.886;2022-08-19T00:55:25;100775.50;;;21.13;70.67
40692;BME280;26377;53.344;14.886;2022-08-19T00:57:58;100781.20;;;21.10;70.83
40692;BME280;26377;53.344;14.886;2022-08-19T01:00:27;100774.88;;;21.05;70.90
40692;BME280;26377;53.344;14.886;2022-08-19T01:02:56;100771.77;;;21.00;70.96
40692;BME280;26377;53.344;14.886;2022-08-19T01:05:26;100767.52;;;20.98;71.07
40692;BME280;26377;53.344;14.886;2022-08-19T01:08:02;100772.29;;;21.00;71.18
40692;BME280;26377;53.344;14.886;2022-08-19T01:10:41;100778.23;;;21.03;71.29
40692;BME280;26377;53.344;14.886;2022-08-19T01:13:19;100773.19;;;21.04;71.33
40692;BME280;26377;53.344;14.886;2022-08-19T01:15:54;100772.53;;;21.06;71.34
40692;BME280;26377;53.344;14.886;2022-08-19T01:18:29;100770.69;;;21.07;71.38
40692;BME280;26377;53.344;14.886;2022-08-19T01:21:02;100769.83;;;21.06;71.34
40692;BME280;26377;53.344;14.886;2022-08-19T01:23:31;100765.95;;;21.05;71.41
40692;BME280;26377;53.344;14.886;2022-08-19T01:26:17;100764.09;;;21.05;71.46
40692;BME280;26377;53.344;14.886;2022-08-19T01:28:45;100757.00;;;21.04;71.54
40692;BME280;26377;53.344;14.886;2022-08-19T01:31:22;100754.76;;;21.00;71.57
40692;BME280;26377;53.344;14.886;2022-08-19T01:33:52;100758.08;;;20.98;71.55
40692;BME280;26377;53.344;14.886;2022-08-19T01:36:38;100758.94;;;20.98;71.59
40692;BME280;26377;53.344;14.886;2022-08-19T01:39:12;100751.12;;;20.95;71.53
40692;BME280;26377;53.344;14.886;2022-08-19T01:41:41;100760.92;;;20.96;71.57
40692;BME280;26377;53.344;14.886;2022-08-19T01:44:10;100756.18;;;20.94;71.59
40692;BME280;26377;53.344;14.886;2022-08-19T01:46:38;100764.61;;;20.95;71.60
40692;BME280;26377;53.344;14.886;2022-08-19T01:49:07;100750.78;;;20.94;71.60
40692;BME280;26377;53.344;14.886;2022-08-19T01:51:38;100749.44;;;20.94;71.62
40692;BME280;26377;53.344;14.886;2022-08-19T01:54:11;100743.70;;;20.93;71.64
40692;BME280;26377;53.344;14.886;2022-08-19T01:56:42;100732.91;;;20.93;71.62
40692;BME280;26377;53.344;14.886;2022-08-19T01:59:16;100727.31;;;20.91;71.63
40692;BME280;26377;53.344;14.886;2022-08-19T02:01:45;100730.49;;;20.90;71.64
40692;BME280;26377;53.344;14.886;2022-08-19T02:04:14;100723.65;;;20.86;71.61
40692;BME280;26377;53.344;14.886;2022-08-19T02:06:41;100722.23;;;20.82;71.68
40692;BME280;26377;53.344;14.886;2022-08-19T02:09:11;100721.89;;;20.81;71.71
40692;BME280;26377;53.344;14.886;2022-08-19T02:11:41;100722.89;;;20.80;71.76
40692;BME280;26377;53.344;14.886;2022-08-19T02:14:09;100728.98;;;20.82;71.80
40692;BME280;26377;53.344;14.886;2022-08-19T02:16:37;100721.89;;;20.81;71.75
40692;BME280;26377;53.344;14.886;2022-08-19T02:19:04;100733.34;;;20.79;71.72
40692;BME280;26377;53.344;14.886;2022-08-19T02:21:33;100734.09;;;20.76;71.76
40692;BME280;26377;53.344;14.886;2022-08-19T02:24:01;100742.19;;;20.76;71.83
40692;BME280;26377;53.344;14.886;2022-08-19T02:26:28;100743.84;;;20.73;71.82
40692;BME280;26377;53.344;14.886;2022-08-19T02:28:56;100738.59;;;20.71;71.90
40692;BME280;26377;53.344;14.886;2022-08-19T02:31:25;100739.94;;;20.71;71.94
40692;BME280;26377;53.344;14.886;2022-08-19T02:33:55;100737.73;;;20.71;72.00
40692;BME280;26377;53.344;14.886;2022-08-19T02:36:25;100733.89;;;20.73;72.07
40692;BME280;26377;53.344;14.886;2022-08-19T02:38:54;100733.20;;;20.71;72.02
40692;BME280;26377;53.344;14.886;2022-08-19T02:41:27;100733.34;;;20.70;72.06
40692;BME280;26377;53.344;14.886;2022-08-19T02:43:59;100732.34;;;20.71;72.10
40692;BME280;26377;53.344;14.886;2022-08-19T02:46:31;100731.51;;;20.70;72.07
40692;BME280;26377;53.344;14.886;2022-08-19T02:49:05;100729.09;;;20.67;72.00
40692;BME280;26377;53.344;14.886;2022-08-19T02:51:40;100717.41;;;20.63;72.08
40692;BME280;26377;53.344;14.886;2022-08-19T02:54:12;100713.84;;;20.62;72.15
40692;BME280;26377;53.344;14.886;2022-08-19T02:56:42;100720.72;;;20.61;72.22
40692;BME280;26377;53.344;14.886;2022-08-19T02:59:14;100721.37;;;20.59;72.30
40692;BME280;26377;53.344;14.886;2022-08-19T03:01:43;100717.12;;;20.56;72.30
40692;BME280;26377;53.344;14.886;2022-08-19T03:04:12;100729.39;;;20.55;72.29
40692;BME280;26377;53.344;14.886;2022-08-19T03:06:45;100718.61;;;20.55;72.32
40692;BME280;26377;53.344;14.886;2022-08-19T03:09:14;100725.49;;;20.53;72.26
40692;BME280;26377;53.344;14.886;2022-08-19T03:11:42;100727.84;;;20.52;72.28
40692;BME280;26377;53.344;14.886;2022-08-19T03:14:15;100724.80;;;20.51;72.27
40692;BME280;26377;53.344;14.886;2022-08-19T03:16:45;100725.77;;;20.50;72.23
40692;BME280;26377;53.344;14.886;2022-08-19T03:22:05;100721.37;;;20.49;72.21
40692;BME280;26377;53.344;14.886;2022-08-19T03:24:32;100716.92;;;20.44;72.14
40692;BME280;26377;53.344;14.886;2022-08-19T03:27:00;100719.84;;;20.37;72.16
40692;BME280;26377;53.344;14.886;2022-08-19T03:29:31;100718.91;;;20.33;72.24
40692;BME280;26377;53.344;14.886;2022-08-19T03:32:05;100718.42;;;20.33;72.33
40692;BME280;26377;53.344;14.886;2022-08-19T03:34:37;100704.09;;;20.33;72.35
40692;BME280;26377;53.344;14.886;2022-08-19T03:37:10;100707.44;;;20.31;72.39
40692;BME280;26377;53.344;14.886;2022-08-19T03:39:42;100707.44;;;20.31;72.51
40692;BME280;26377;53.344;14.886;2022-08-19T03:42:11;100700.05;;;20.33;72.54
40692;BME280;26377;53.344;14.886;2022-08-19T03:44:38;100703.81;;;20.36;72.63
40692;BME280;26377;53.344;14.886;2022-08-19T03:47:06;100705.37;;;20.38;72.69
40692;BME280;26377;53.344;14.886;2022-08-19T03:49:33;100702.02;;;20.40;72.67
40692;BME280;26377;53.344;14.886;2022-08-19T03:52:02;100705.92;;;20.42;72.68
40692;BME280;26377;53.344;14.886;2022-08-19T03:54:32;100706.79;;;20.42;72.68
40692;BME280;26377;53.344;14.886;2022-08-19T03:57:02;100712.39;;;20.45;72.72
40692;BME280;26377;53.344;14.886;2022-08-19T03:59:36;100704.00;;;20.48;72.76
40692;BME280;26377;53.344;14.886;2022-08-19T04:02:12;100705.34;;;20.48;72.74
40692;BME280;26377;53.344;14.886;2022-08-19T04:04:42;100714.77;;;20.48;72.76
40692;BME280;26377;53.344;14.886;2022-08-19T04:07:13;100713.64;;;20.50;72.83
40692;BME280;26377;53.344;14.886;2022-08-19T04:09:45;100712.50;;;20.53;72.84
40692;BME280;26377;53.344;14.886;2022-08-19T04:12:15;100716.41;;;20.54;72.83
40692;BME280;26377;53.344;14.886;2022-08-19T04:14:47;100711.22;;;20.57;72.91
40692;BME280;26377;53.344;14.886;2022-08-19T04:17:15;100716.20;;;20.61;72.96
40692;BME280;26377;53.344;14.886;2022-08-19T04:19:47;100711.50;;;20.63;72.91
40692;BME280;26377;53.344;14.886;2022-08-19T04:22:16;100711.22;;;20.66;72.98
40692;BME280;26377;53.344;14.886;2022-08-19T04:24:45;100715.16;;;20.72;73.06
40692;BME280;26377;53.344;14.886;2022-08-19T04:27:12;100727.16;;;20.73;73.08
40692;BME280;26377;53.344;14.886;2022-08-19T04:29:40;100732.75;;;20.76;73.12
40692;BME280;26377;53.344;14.886;2022-08-19T04:32:08;100724.87;;;20.78;73.16
40692;BME280;26377;53.344;14.886;2022-08-19T04:34:37;100730.98;;;20.80;73.12
40692;BME280;26377;53.344;14.886;2022-08-19T04:37:05;100731.81;;;20.81;73.11
40692;BME280;26377;53.344;14.886;2022-08-19T04:39:41;100731.98;;;20.79;73.09
40692;BME280;26377;53.344;14.886;2022-08-19T04:42:26;100730.27;;;20.78;73.09
40692;BME280;26377;53.344;14.886;2022-08-19T04:45:10;100729.91;;;20.77;73.14
40692;BME280;26377;53.344;14.886;2022-08-19T04:47:43;100733.61;;;20.76;73.16
40692;BME280;26377;53.344;14.886;2022-08-19T04:50:11;100745.81;;;20.80;73.29
40692;BME280;26377;53.344;14.886;2022-08-19T04:52:39;100747.92;;;20.86;73.32
40692;BME280;26377;53.344;14.886;2022-08-19T04:55:10;100760.16;;;20.90;73.36
40692;BME280;26377;53.344;14.886;2022-08-19T04:57:39;100769.66;;;20.94;73.37
40692;BME280;26377;53.344;14.886;2022-08-19T05:00:11;100779.31;;;20.97;73.33
40692;BME280;26377;53.344;14.886;2022-08-19T05:02:39;100760.50;;;21.01;73.46
40692;BME280;26377;53.344;14.886;2022-08-19T05:05:07;100741.47;;;21.02;73.30
40692;BME280;26377;53.344;14.886;2022-08-19T05:07:35;100754.09;;;21.02;73.32
40692;BME280;26377;53.344;14.886;2022-08-19T05:10:05;100767.12;;;21.06;73.50
40692;BME280;26377;53.344;14.886;2022-08-19T05:12:33;100771.83;;;21.14;73.54
40692;BME280;26377;53.344;14.886;2022-08-19T05:15:03;100775.07;;;21.17;73.51
40692;BME280;26377;53.344;14.886;2022-08-19T05:17:36;100761.50;;;21.23;73.51
40692;BME280;26377;53.344;14.886;2022-08-19T05:20:10;100751.20;;;21.22;73.22
40692;BME280;26377;53.344;14.886;2022-08-19T05:22:56;100742.84;;;21.16;73.28
40692;BME280;26377;53.344;14.886;2022-08-19T05:25:23;100749.86;;;21.13;73.27
40692;BME280;26377;53.344;14.886;2022-08-19T05:27:51;100758.48;;;21.12;73.49
40692;BME280;26377;53.344;14.886;2022-08-19T05:30:20;100762.06;;;21.17;73.54
40692;BME280;26377;53.344;14.886;2022-08-19T05:32:48;100758.02;;;21.17;73.43
40692;BME280;26377;53.344;14.886;2022-08-19T05:35:19;100760.09;;;21.19;73.51
40692;BME280;26377;53.344;14.886;2022-08-19T05:37:49;100760.78;;;21.21;73.54
40692;BME280;26377;53.344;14.886;2022-08-19T05:40:16;100757.39;;;21.19;73.45
40692;BME280;26377;53.344;14.886;2022-08-19T05:42:45;100769.02;;;21.19;73.59
40692;BME280;26377;53.344;14.886;2022-08-19T05:45:14;100763.27;;;21.18;73.56
40692;BME280;26377;53.344;14.886;2022-08-19T05:47:41;100759.43;;;21.21;73.64
40692;BME280;26377;53.344;14.886;2022-08-19T05:50:09;100765.55;;;21.23;73.56
40692;BME280;26377;53.344;14.886;2022-08-19T05:52:37;100762.79;;;21.19;73.51
40692;BME280;26377;53.344;14.886;2022-08-19T05:55:06;100762.93;;;21.17;73.54
40692;BME280;26377;53.344;14.886;2022-08-19T05:57:34;100765.48;;;21.19;73.64
40692;BME280;26377;53.344;14.886;2022-08-19T06:00:04;100767.73;;;21.23;73.76
40692;BME280;26377;53.344;14.886;2022-08-19T06:02:37;100768.48;;;21.29;73.84
40692;BME280;26377;53.344;14.886;2022-08-19T06:05:06;100769.61;;;21.36;73.83
40692;BME280;26377;53.344;14.886;2022-08-19T06:07:39;100778.25;;;21.40;73.77
40692;BME280;26377;53.344;14.886;2022-08-19T06:10:08;100781.49;;;21.43;73.83
40692;BME280;26377;53.344;14.886;2022-08-19T06:12:38;100779.05;;;21.50;73.82
40692;BME280;26377;53.344;14.886;2022-08-19T06:15:10;100776.94;;;21.53;73.85
40692;BME280;26377;53.344;14.886;2022-08-19T06:17:40;100776.19;;;21.61;73.83
40692;BME280;26377;53.344;14.886;2022-08-19T06:20:14;100769.92;;;21.60;73.64
40692;BME280;26377;53.344;14.886;2022-08-19T06:22:47;100773.97;;;21.60;73.70
40692;BME280;26377;53.344;14.886;2022-08-19T06:25:17;100781.27;;;21.64;73.73
40692;BME280;26377;53.344;14.886;2022-08-19T06:27:48;100775.17;;;21.62;73.67
40692;BME280;26377;53.344;14.886;2022-08-19T06:30:15;100773.48;;;21.61;73.70
40692;BME280;26377;53.344;14.886;2022-08-19T06:32:43;100772.67;;;21.64;73.75
40692;BME280;26377;53.344;14.886;2022-08-19T06:35:10;100769.69;;;21.67;73.77
40692;BME280;26377;53.344;14.886;2022-08-19T06:37:40;100774.45;;;21.69;73.70
40692;BME280;26377;53.344;14.886;2022-08-19T06:40:10;100792.55;;;21.73;73.85
40692;BME280;26377;53.344;14.886;2022-08-19T06:42:39;100793.47;;;21.77;73.82
40692;BME280;26377;53.344;14.886;2022-08-19T06:45:09;100776.45;;;21.81;73.79
40692;BME280;26377;53.344;14.886;2022-08-19T06:47:36;100771.77;;;21.83;73.77
40692;BME280;26377;53.344;14.886;2022-08-19T06:50:05;100763.67;;;21.83;73.75
40692;BME280;26377;53.344;14.886;2022-08-19T06:52:34;100757.75;;;21.83;73.75
40692;BME280;26377;53.344;14.886;2022-08-19T06:55:03;100736.81;;;21.81;73.74
40692;BME280;26377;53.344;14.886;2022-08-19T06:57:35;100721.56;;;21.76;73.67
40692;BME280;26377;53.344;14.886;2022-08-19T07:00:05;100718.66;;;21.74;73.72
40692;BME280;26377;53.344;14.886;2022-08-19T07:02:36;100720.80;;;21.70;73.76
40692;BME280;26377;53.344;14.886;2022-08-19T07:05:05;100724.02;;;21.70;73.84
40692;BME280;26377;53.344;14.886;2022-08-19T07:07:33;100728.55;;;21.69;73.85
40692;BME280;26377;53.344;14.886;2022-08-19T07:10:03;100732.72;;;21.68;73.96
40692;BME280;26377;53.344;14.886;2022-08-19T07:12:32;100747.80;;;21.70;73.94
40692;BME280;26377;53.344;14.886;2022-08-19T07:15:04;100740.07;;;21.71;73.90
40692;BME280;26377;53.344;14.886;2022-08-19T07:17:32;100737.43;;;21.66;74.00
40692;BME280;26377;53.344;14.886;2022-08-19T07:20:02;100747.02;;;21.64;74.12
40692;BME280;26377;53.344;14.886;2022-08-19T07:22:32;100755.47;;;21.65;74.24
40692;BME280;26377;53.344;14.886;2022-08-19T07:25:03;100758.02;;;21.67;74.28
40692;BME280;26377;53.344;14.886;2022-08-19T07:27:37;100762.83;;;21.69;74.30
40692;BME280;26377;53.344;14.886;2022-08-19T07:30:09;100768.63;;;21.74;74.39
40692;BME280;26377;53.344;14.886;2022-08-19T07:32:39;100761.55;;;21.77;74.36
40692;BME280;26377;53.344;14.886;2022-08-19T07:35:08;100770.52;;;21.77;74.33
40692;BME280;26377;53.344;14.886;2022-08-19T07:37:37;100770.38;;;21.79;74.24
40692;BME280;26377;53.344;14.886;2022-08-19T07:40:07;100778.47;;;21.79;74.31
40692;BME280;26377;53.344;14.886;2022-08-19T07:42:37;100775.77;;;21.79;74.31
40692;BME280;26377;53.344;14.886;2022-08-19T07:45:06;100782.52;;;21.79;74.24
40692;BME280;26377;53.344;14.886;2022-08-19T07:47:36;100792.31;;;21.80;74.26
40692;BME280;26377;53.344;14.886;2022-08-19T07:50:06;100789.62;;;21.80;74.25
40692;BME280;26377;53.344;14.886;2022-08-19T07:52:36;100779.97;;;21.77;74.17
40692;BME280;26377;53.344;14.886;2022-08-19T07:55:08;100767.42;;;21.72;74.13
40692;BME280;26377;53.344;14.886;2022-08-19T07:57:36;100766.88;;;21.69;74.19
40692;BME280;26377;53.344;14.886;2022-08-19T08:00:06;100752.42;;;21.64;74.32
40692;BME280;26377;53.344;14.886;2022-08-19T08:02:38;100741.57;;;21.60;74.37
40692;BME280;26377;53.344;14.886;2022-08-19T08:05:06;100734.67;;;21.62;74.47
40692;BME280;26377;53.344;14.886;2022-08-19T08:07:52;100729.81;;;21.65;74.58
40692;BME280;26377;53.344;14.886;2022-08-19T08:10:40;100725.56;;;21.72;74.73
40692;BME280;26377;53.344;14.886;2022-08-19T08:13:07;100730.69;;;21.79;74.76
40692;BME280;26377;53.344;14.886;2022-08-19T08:15:36;100729.92;;;21.87;74.83
40692;BME280;26377;53.344;14.886;2022-08-19T08:18:06;100731.89;;;21.94;74.94
40692;BME280;26377;53.344;14.886;2022-08-19T08:20:34;100723.02;;;22.02;74.89
40692;BME280;26377;53.344;14.886;2022-08-19T08:23:03;100725.44;;;22.09;74.96
40692;BME280;26377;53.344;14.886;2022-08-19T08:25:55;100727.38;;;22.16;74.88
40692;BME280;26377;53.344;14.886;2022-08-19T08:28:25;100738.94;;;22.23;74.83
40692;BME280;26377;53.344;14.886;2022-08-19T08:30:53;100762.10;;;22.25;74.71
40692;BME280;26377;53.344;14.886;2022-08-19T08:33:25;100751.67;;;22.30;74.90
40692;BME280;26377;53.344;14.886;2022-08-19T08:35:53;100742.78;;;22.38;74.83
40692;BME280;26377;53.344;14.886;2022-08-19T08:38:20;100745.19;;;22.41;74.73
40692;BME280;26377;53.344;14.886;2022-08-19T08:40:59;100753.64;;;22.42;74.53
40692;BME280;26377;53.344;14.886;2022-08-19T08:43:37;100754.13;;;22.41;74.58
40692;BME280;26377;53.344;14.886;2022-08-19T08:46:15;100761.42;;;22.44;74.63
40692;BME280;26377;53.344;14.886;2022-08-19T08:48:56;100764.53;;;22.46;74.52
40692;BME280;26377;53.344;14.886;2022-08-19T08:51:36;100763.03;;;22.51;74.63
40692;BME280;26377;53.344;14.886;2022-08-19T08:54:11;100761.39;;;22.54;74.48
40692;BME280;26377;53.344;14.886;2022-08-19T08:56:41;100767.28;;;22.54;74.42
40692;BME280;26377;53.344;14.886;2022-08-19T08:59:21;100767.13;;;22.55;74.43
40692;BME280;26377;53.344;14.886;2022-08-19T09:01:55;100759.55;;;22.59;74.50
40692;BME280;26377;53.344;14.886;2022-08-19T09:04:22;100764.17;;;22.62;74.38
40692;BME280;26377;53.344;14.886;2022-08-19T09:09:38;100769.25;;;22.65;74.21
40692;BME280;26377;53.344;14.886;2022-08-19T09:14:55;100762.14;;;22.64;74.17
40692;BME280;26377;53.344;14.886;2022-08-19T09:17:30;100749.30;;;22.62;74.24
40692;BME280;26377;53.344;14.886;2022-08-19T09:22:42;100738.33;;;22.68;74.21
40692;BME280;26377;53.344;14.886;2022-08-19T09:25:16;100735.81;;;22.70;74.35
40692;BME280;26377;53.344;14.886;2022-08-19T09:27:45;100733.33;;;22.77;74.24
40692;BME280;26377;53.344;14.886;2022-08-19T09:30:19;100724.61;;;22.83;74.30
40692;BME280;26377;53.344;14.886;2022-08-19T09:32:51;100717.23;;;22.93;74.39
40692;BME280;26377;53.344;14.886;2022-08-19T09:35:26;100708.83;;;23.04;74.33
40692;BME280;26377;53.344;14.886;2022-08-19T09:37:53;100702.43;;;23.09;74.21
40692;BME280;26377;53.344;14.886;2022-08-19T09:40:24;100703.50;;;23.16;74.18
40692;BME280;26377;53.344;14.886;2022-08-19T09:42:55;100706.96;;;23.26;74.21
40692;BME280;26377;53.344;14.886;2022-08-19T09:45:26;100716.31;;;23.31;74.05
40692;BME280;26377;53.344;14.886;2022-08-19T09:47:58;100731.20;;;23.31;73.77
40692;BME280;26377;53.344;14.886;2022-08-19T09:50:27;100729.47;;;23.30;73.81
40692;BME280;26377;53.344;14.886;2022-08-19T09:52:54;100730.36;;;23.35;73.88
40692;BME280;26377;53.344;14.886;2022-08-19T09:55:24;100723.09;;;23.39;73.81
40692;BME280;26377;53.344;14.886;2022-08-19T09:57:53;100719.22;;;23.38;73.67
40692;BME280;26377;53.344;14.886;2022-08-19T10:00:21;100725.13;;;23.37;73.63
40692;BME280;26377;53.344;14.886;2022-08-19T10:02:49;100735.91;;;23.29;73.33
40692;BME280;26377;53.344;14.886;2022-08-19T10:05:16;100731.61;;;23.19;73.29
40692;BME280;26377;53.344;14.886;2022-08-19T10:08:03;100738.66;;;23.12;73.42
40692;BME280;26377;53.344;14.886;2022-08-19T10:10:35;100743.70;;;23.07;73.44
40692;BME280;26377;53.344;14.886;2022-08-19T10:13:02;100739.95;;;23.04;73.46
40692;BME280;26377;53.344;14.886;2022-08-19T10:15:30;100730.30;;;23.01;73.48
40692;BME280;26377;53.344;14.886;2022-08-19T10:17:57;100728.64;;;23.04;73.61
40692;BME280;26377;53.344;14.886;2022-08-19T10:20:29;100735.77;;;23.09;73.71
40692;BME280;26377;53.344;14.886;2022-08-19T10:22:57;100735.98;;;23.16;73.74
40692;BME280;26377;53.344;14.886;2022-08-19T10:25:27;100721.36;;;23.26;73.41
40692;BME280;26377;53.344;14.886;2022-08-19T10:27:56;100721.36;;;23.26;73.41
40692;BME280;26377;53.344;14.886;2022-08-19T10:30:27;100698.87;;;23.30;73.71
40692;BME280;26377;53.344;14.886;2022-08-19T10:32:54;100700.27;;;23.38;73.80
40692;BME280;26377;53.344;14.886;2022-08-19T10:35:21;100697.73;;;23.44;73.88
40692;BME280;26377;53.344;14.886;2022-08-19T10:37:51;100697.29;;;23.57;73.87
40692;BME280;26377;53.344;14.886;2022-08-19T10:40:19;100696.82;;;23.69;73.82
40692;BME280;26377;53.344;14.886;2022-08-19T10:42:46;100693.95;;;23.79;73.67
40692;BME280;26377;53.344;14.886;2022-08-19T10:45:13;100698.20;;;23.85;73.49
40692;BME280;26377;53.344;14.886;2022-08-19T10:47:41;100702.16;;;23.91;73.53
40692;BME280;26377;53.344;14.886;2022-08-19T10:50:09;100696.77;;;24.03;73.50
40692;BME280;26377;53.344;14.886;2022-08-19T10:52:56;100692.53;;;24.12;73.33
40692;BME280;26377;53.344;14.886;2022-08-19T10:55:25;100681.71;;;24.24;73.34
40692;BME280;26377;53.344;14.886;2022-08-19T10:58:17;100691.88;;;24.38;73.38
40692;BME280;26377;53.344;14.886;2022-08-19T11:00:56;100685.45;;;24.55;73.38
40692;BME280;26377;53.344;14.886;2022-08-19T11:03:27;100684.09;;;24.67;73.07
40692;BME280;26377;53.344;14.886;2022-08-19T11:06:00;100678.33;;;24.78;73.02
40692;BME280;26377;53.344;14.886;2022-08-19T11:08:30;100681.16;;;24.97;72.94
40692;BME280;26377;53.344;14.886;2022-08-19T11:11:00;100672.62;;;25.12;72.76
40692;BME280;26377;53.344;14.886;2022-08-19T11:13:33;100661.20;;;25.24;72.66
40692;BME280;26377;53.344;14.886;2022-08-19T11:16:13;100651.86;;;25.35;72.41
40692;BME280;26377;53.344;14.886;2022-08-19T11:18:44;100650.77;;;25.52;72.18
40692;BME280;26377;53.344;14.886;2022-08-19T11:23:57;100642.56;;;25.94;71.75
40692;BME280;26377;53.344;14.886;2022-08-19T11:26:33;100636.11;;;26.14;71.41
40692;BME280;26377;53.344;14.886;2022-08-19T11:29:03;100638.36;;;26.33;71.07
40692;BME280;26377;53.344;14.886;2022-08-19T11:31:34;100639.05;;;26.49;70.36
40692;BME280;26377;53.344;14.886;2022-08-19T11:34:06;100644.42;;;26.57;70.18
40692;BME280;26377;53.344;14.886;2022-08-19T11:36:33;100641.13;;;26.80;70.33
40692;BME280;26377;53.344;14.886;2022-08-19T11:39:04;100647.63;;;26.94;69.78
40692;BME280;26377;53.344;14.886;2022-08-19T11:41:35;100650.87;;;27.08;69.40
40692;BME280;26377;53.344;14.886;2022-08-19T11:44:03;100646.87;;;27.18;69.03
40692;BME280;26377;53.344;14.886;2022-08-19T11:46:33;100642.20;;;27.37;69.17
40692;BME280;26377;53.344;14.886;2022-08-19T11:49:01;100644.73;;;27.64;69.14
40692;BME280;26377;53.344;14.886;2022-08-19T11:51:30;100641.86;;;27.86;68.46
40692;BME280;26377;53.344;14.886;2022-08-19T11:53:59;100638.71;;;28.04;68.09
40692;BME280;26377;53.344;14.886;2022-08-19T11:56:28;100646.43;;;28.21;67.40
40692;BME280;26377;53.344;14.886;2022-08-19T11:58:58;100651.53;;;28.31;66.98
40692;BME280;26377;53.344;14.886;2022-08-19T12:01:26;100648.36;;;28.38;66.68
40692;BME280;26377;53.344;14.886;2022-08-19T12:03:55;100652.25;;;28.60;66.43
40692;BME280;26377;53.344;14.886;2022-08-19T12:06:26;100656.06;;;28.76;66.09
40692;BME280;26377;53.344;14.886;2022-08-19T12:08:59;100652.58;;;28.89;65.83
40692;BME280;26377;53.344;14.886;2022-08-19T12:11:31;100651.06;;;29.07;65.54
40692;BME280;26377;53.344;14.886;2022-08-19T12:14:00;100651.58;;;29.24;65.21
40692;BME280;26377;53.344;14.886;2022-08-19T12:16:29;100644.70;;;29.41;64.73
40692;BME280;26377;53.344;14.886;2022-08-19T12:18:57;100645.45;;;29.56;64.33
40692;BME280;26377;53.344;14.886;2022-08-19T12:21:27;100646.98;;;29.78;64.18
40692;BME280;26377;53.344;14.886;2022-08-19T12:23:56;100655.00;;;29.86;63.30
40692;BME280;26377;53.344;14.886;2022-08-19T12:26:27;100655.84;;;29.80;62.88
40692;BME280;26377;53.344;14.886;2022-08-19T12:28:55;100650.87;;;29.79;62.59
40692;BME280;26377;53.344;14.886;2022-08-19T12:31:22;100653.30;;;29.78;62.25
40692;BME280;26377;53.344;14.886;2022-08-19T12:33:49;100652.13;;;29.77;62.29
40692;BME280;26377;53.344;14.886;2022-08-19T12:36:18;100661.81;;;29.79;62.06
40692;BME280;26377;53.344;14.886;2022-08-19T12:38:46;100662.56;;;29.77;61.77
40692;BME280;26377;53.344;14.886;2022-08-19T12:41:16;100660.97;;;29.72;61.45
40692;BME280;26377;53.344;14.886;2022-08-19T12:43:45;100654.02;;;29.76;61.58
40692;BME280;26377;53.344;14.886;2022-08-19T12:46:16;100659.08;;;29.79;61.33
40692;BME280;26377;53.344;14.886;2022-08-19T12:48:44;100657.58;;;29.70;60.87
40692;BME280;26377;53.344;14.886;2022-08-19T12:51:15;100659.61;;;29.72;61.00
40692;BME280;26377;53.344;14.886;2022-08-19T12:53:47;100657.37;;;29.72;60.57
40692;BME280;26377;53.344;14.886;2022-08-19T12:56:16;100662.82;;;29.65;60.36
40692;BME280;26377;53.344;14.886;2022-08-19T12:58:45;100658.09;;;29.63;60.19
40692;BME280;26377;53.344;14.886;2022-08-19T13:01:15;100652.94;;;29.64;60.11
40692;BME280;26377;53.344;14.886;2022-08-19T13:03:45;100654.93;;;29.66;60.05
40692;BME280;26377;53.344;14.886;2022-08-19T13:06:14;100659.62;;;29.79;60.10
40692;BME280;26377;53.344;14.886;2022-08-19T13:08:43;100655.76;;;29.97;60.21
40692;BME280;26377;53.344;14.886;2022-08-19T13:11:13;100652.90;;;30.18;59.83